Time;durP1;ratioP1;P1;durP2;ratioP2;P2;SDS_P1;SDS_P2;PMS_P1;PMS_P2;Temp;Humidity;BMP_temperature;BMP_pressure;BME280_temperature;BME280_humidity;BME280_pressure;Samples;Min_cycle;Max_cycle;Signal;HPM_P1;HPM_P2
2023/08/03 00:00:58;;;;;;;3.80;1.73;;;19.60;64.80;;;20.82;49.73;96226.56;5014130;28;20509;-54
2023/08/03 00:03:26;;;;;;;4.05;1.65;;;19.60;65.90;;;20.78;49.78;96222.75;5005956;28;20048;-52
2023/08/03 00:05:54;;;;;;;4.88;2.13;;;19.60;65.70;;;20.84;49.43;96217.13;5014045;28;20486;-56
2023/08/03 00:08:21;;;;;;;4.30;1.70;;;19.60;65.50;;;20.82;49.46;96221.16;5013287;28;20054;-56
2023/08/03 00:10:49;;;;;;;3.53;2.00;;;19.60;65.30;;;20.82;49.45;96224.69;5013217;28;20041;-53
2023/08/03 00:13:16;;;;;;;4.88;2.00;;;19.50;65.30;;;20.82;49.14;96224.69;5013655;28;20049;-55
2023/08/03 00:15:44;;;;;;;2.88;1.52;;;19.50;64.50;;;20.83;48.71;96233.63;5012671;28;20505;-54
2023/08/03 00:18:12;;;;;;;7.18;2.35;;;19.50;64.60;;;20.84;48.71;96219.84;5013256;28;20042;-54
2023/08/03 00:20:39;;;;;;;4.45;1.25;;;19.60;64.30;;;20.78;48.83;96222.75;5012902;28;20517;-54
2023/08/03 00:23:07;;;;;;;8.40;2.28;;;19.50;64.00;;;20.77;48.93;96230.06;5013531;28;20539;-55
2023/08/03 00:25:34;;;;;;;7.50;1.83;;;19.50;63.60;;;20.72;48.29;96232.72;5013345;28;20042;-54
2023/08/03 00:28:02;;;;;;;8.65;1.80;;;19.50;63.50;;;20.70;48.37;96229.47;5012341;28;20038;-55
2023/08/03 00:30:30;;;;;;;4.95;2.13;;;19.50;62.90;;;20.71;48.61;96225.69;5004074;28;20053;-54
2023/08/03 00:32:57;;;;;;;3.65;1.50;;;19.50;63.10;;;20.73;48.28;96239.78;5013392;28;20494;-52
2023/08/03 00:35:25;;;;;;;7.40;1.55;;;19.50;62.20;;;20.70;47.84;96226.75;5013328;28;20049;-53
2023/08/03 00:37:53;;;;;;;4.55;1.58;;;19.50;61.50;;;20.69;47.84;96235.16;5012149;28;20061;-55
2023/08/03 00:40:21;;;;;;;4.38;1.80;;;19.50;62.10;;;20.70;47.68;96229.47;5012107;28;20066;-55
2023/08/03 00:42:49;;;;;;;5.18;2.08;;;19.50;61.60;;;20.74;47.84;96230.56;5012996;28;20046;-55
2023/08/03 00:45:17;;;;;;;4.47;1.65;;;19.40;62.50;;;20.72;47.67;96238.13;5012000;28;20057;-53
2023/08/03 00:47:44;;;;;;;3.22;1.58;;;19.40;62.20;;;20.60;47.77;96242.91;5013314;28;20357;-55
2023/08/03 00:50:12;;;;;;;6.68;1.92;;;19.30;62.00;;;20.55;47.77;96232.88;5011271;28;20050;-57
2023/08/03 00:52:40;;;;;;;3.53;1.35;;;19.30;62.40;;;20.62;48.03;96230.75;5003733;28;20386;-56
2023/08/03 00:55:08;;;;;;;4.38;1.83;;;19.30;62.60;;;20.49;47.63;96227.66;5011972;28;20052;-56
2023/08/03 00:57:35;;;;;;;2.63;1.25;;;19.30;62.30;;;20.39;48.09;96228.41;5011712;28;20054;-55
2023/08/03 01:00:03;;;;;;;2.78;1.23;;;19.20;61.90;;;20.43;48.23;96235.75;5011361;28;20065;-56
2023/08/03 01:02:32;;;;;;;5.57;1.70;;;19.20;62.40;;;20.40;48.03;96233.56;5011069;28;20050;-52
2023/08/03 01:05:02;;;;;;;2.53;1.40;;;19.20;62.90;;;20.25;48.42;96231.53;5011698;28;20050;-55
2023/08/03 01:07:29;;;;;;;4.88;1.40;;;19.10;64.00;;;20.26;48.45;96229.66;4994322;28;20113;-54
2023/08/03 01:09:57;;;;;;;6.88;1.75;;;19.10;62.90;;;20.32;48.41;96227.81;5009428;28;20417;-54
2023/08/03 01:12:27;;;;;;;4.70;1.80;;;19.10;62.80;;;20.36;48.59;96235.13;5010607;28;20054;-55
2023/08/03 01:14:55;;;;;;;5.38;1.42;;;19.10;63.40;;;20.34;48.45;96239.19;5012798;28;20068;-57
2023/08/03 01:17:24;;;;;;;2.95;1.55;;;19.00;63.10;;;20.31;48.34;96243.19;5027962;28;20521;-56
2023/08/03 01:19:51;;;;;;;4.20;1.63;;;19.00;63.60;;;20.31;48.36;96239.69;5011341;28;20037;-54
2023/08/03 01:22:20;;;;;;;3.10;1.10;;;19.00;63.80;;;20.31;48.34;96242.38;5012325;28;20049;-54
2023/08/03 01:24:48;;;;;;;3.70;1.60;;;19.00;63.30;;;20.20;48.77;96233.38;5011003;28;20046;-56
2023/08/03 01:27:15;;;;;;;4.45;2.25;;;18.90;63.80;;;20.24;48.60;96238.03;5012502;28;20139;-54
2023/08/03 01:29:43;;;;;;;4.60;1.42;;;18.90;64.20;;;20.20;48.75;96233.38;4994285;28;20046;-55
2023/08/03 01:32:11;;;;;;;5.10;2.00;;;18.90;64.10;;;20.21;49.10;96235.81;5012369;28;20049;-54
2023/08/03 01:34:38;;;;;;;3.30;1.40;;;18.90;64.70;;;20.14;49.30;96224.44;5027638;28;20049;-54
2023/08/03 01:37:07;;;;;;;5.10;2.42;;;18.90;65.10;;;20.06;49.48;96225.72;5011267;28;20050;-56
2023/08/03 01:39:34;;;;;;;2.13;1.35;;;18.90;65.40;;;20.14;49.75;96231.69;4994546;28;20068;-56
2023/08/03 01:42:02;;;;;;;3.03;1.42;;;18.90;65.50;;;20.12;49.79;96229.25;5010303;28;20060;-56
2023/08/03 01:44:30;;;;;;;3.67;1.98;;;18.90;65.70;;;20.06;49.91;96230.28;5011108;28;20049;-53
2023/08/03 01:46:59;;;;;;;3.03;1.48;;;18.80;65.70;;;20.01;50.07;96225.66;4994173;28;20038;-54
2023/08/03 01:49:29;;;;;;;5.88;1.77;;;18.70;66.00;;;20.00;50.18;96234.81;5009955;28;20054;-55
2023/08/03 01:51:57;;;;;;;6.00;1.63;;;18.70;65.80;;;19.96;49.90;96235.59;5012146;28;20053;-56
2023/08/03 01:54:25;;;;;;;4.47;1.60;;;18.80;66.30;;;19.95;50.05;96225.84;5010109;28;20054;-53
2023/08/03 01:56:53;;;;;;;5.13;1.73;;;18.70;66.40;;;19.93;49.76;96234.22;5011931;28;20486;-54
2023/08/03 01:59:21;;;;;;;3.78;1.45;;;18.70;65.80;;;19.96;49.91;96241.78;5010318;28;20038;-56
2023/08/03 02:01:49;;;;;;;3.47;1.60;;;18.70;65.20;;;19.96;49.97;96236.41;5027341;28;20044;-51
2023/08/03 02:04:17;;;;;;;8.30;1.73;;;18.70;65.60;;;19.91;50.00;96244.47;5010051;28;20034;-53
2023/08/03 02:06:48;;;;;;;5.35;2.20;;;18.70;65.50;;;19.97;49.49;96248.03;5010461;28;20041;-50
2023/08/03 02:09:16;;;;;;;3.40;1.60;;;18.70;65.50;;;19.94;49.94;96252.03;5009633;28;20064;-52
2023/08/03 02:11:44;;;;;;;3.85;1.45;;;18.70;65.80;;;19.95;49.64;96263.66;5011132;28;20417;-55
2023/08/03 02:14:12;;;;;;;4.30;1.77;;;18.70;65.20;;;19.94;49.29;96268.25;5011828;28;20038;-55
2023/08/03 02:16:39;;;;;;;3.35;1.20;;;18.70;64.70;;;19.90;48.72;96263.63;5001957;28;20047;-57
2023/08/03 02:19:07;;;;;;;3.88;1.00;;;18.70;63.30;;;19.76;48.87;96269.41;5010306;28;20046;-50
2023/08/03 02:21:35;;;;;;;4.47;1.60;;;18.60;63.00;;;19.73;48.35;96255.59;5011493;28;20395;-55
2023/08/03 02:24:02;;;;;;;4.25;1.63;;;18.60;62.20;;;19.80;48.51;96261.63;5011666;28;20493;-56
2023/08/03 02:26:32;;;;;;;2.63;1.58;;;18.60;62.30;;;19.83;48.35;96267.34;4994618;28;20669;-52
2023/08/03 02:28:59;;;;;;;2.55;1.10;;;18.60;61.10;;;19.81;47.72;96274.03;5011269;28;20042;-55
2023/08/03 02:31:28;;;;;;;4.95;1.35;;;18.60;61.40;;;19.73;47.99;96275.31;5010504;28;20061;-54
2023/08/03 02:33:55;;;;;;;3.13;1.30;;;18.60;60.90;;;19.64;47.85;96288.41;4993440;28;20038;-56
2023/08/03 02:36:30;;;;;;;1.70;0.88;;;18.60;60.30;;;19.54;48.00;96277.50;5010209;28;20057;-52
2023/08/03 02:39:03;;;;;;;2.22;0.93;;;18.60;60.40;;;19.57;47.96;96276.19;5010130;28;20054;-52
2023/08/03 02:41:33;;;;;;;2.53;1.25;;;18.50;61.10;;;19.63;47.87;96275.16;5010088;28;20049;-54
2023/08/03 02:44:03;;;;;;;4.45;1.45;;;18.50;61.50;;;19.65;48.24;96279.25;5010439;28;20053;-52
2023/08/03 02:46:32;;;;;;;2.65;1.30;;;18.50;62.40;;;19.49;48.71;96261.25;5009874;28;20073;-55
2023/08/03 02:49:01;;;;;;;2.83;1.10;;;18.40;63.00;;;19.43;49.14;96268.47;5018165;28;20290;-55
2023/08/03 02:51:30;;;;;;;4.13;1.02;;;18.30;63.80;;;19.56;48.94;96279.94;5010003;28;20049;-55
2023/08/03 02:53:58;;;;;;;5.22;1.80;;;18.30;64.20;;;19.53;49.05;96265.06;4993829;28;20042;-55
2023/08/03 02:56:31;;;;;;;2.88;1.17;;;18.30;64.90;;;19.52;49.63;96281.50;5010032;28;20053;-52
2023/08/03 02:59:01;;;;;;;3.30;1.10;;;18.20;65.50;;;19.43;49.83;96276.56;5009880;28;20050;-52
2023/08/03 03:01:37;;;;;;;3.42;1.50;;;18.10;66.30;;;19.51;49.93;96286.09;5010270;28;20058;-52
2023/08/03 03:04:07;;;;;;;5.47;1.23;;;18.10;67.00;;;19.44;50.61;96282.75;5010289;28;20061;-56
2023/08/03 03:06:39;;;;;;;6.40;1.45;;;18.10;68.40;;;19.40;50.72;96297.81;4993666;28;20628;-55
2023/08/03 03:09:08;;;;;;;2.97;1.10;;;18.00;68.80;;;19.31;51.26;96288.53;5009796;28;20042;-53
2023/08/03 03:11:39;;;;;;;4.40;1.10;;;17.90;69.50;;;19.25;51.54;96299.25;5026747;28;20046;-52
2023/08/03 03:14:07;;;;;;;2.03;1.08;;;17.80;69.70;;;19.21;51.64;96295.44;5010101;28;20050;-55
2023/08/03 03:16:35;;;;;;;3.33;1.35;;;17.80;70.20;;;19.26;51.61;96297.38;5012229;28;20049;-53
2023/08/03 03:19:02;;;;;;;2.72;1.77;;;17.80;70.30;;;19.18;52.03;96297.81;5013387;28;20058;-54
2023/08/03 03:21:30;;;;;;;5.47;1.60;;;17.80;70.20;;;19.24;51.96;96284.13;5013822;28;20054;-54
2023/08/03 03:23:58;;;;;;;3.20;1.67;;;17.90;70.30;;;19.26;51.87;96291.97;5021846;28;20049;-51
2023/08/03 03:26:25;;;;;;;4.43;1.55;;;17.90;70.10;;;19.20;52.01;96288.41;4997288;28;20052;-52
2023/08/03 03:28:53;;;;;;;4.20;1.73;;;17.80;70.20;;;19.31;51.68;96304.72;5013195;28;20045;-53
2023/08/03 03:31:28;;;;;;;3.58;1.70;;;17.90;70.20;;;19.25;51.55;96298.44;5013394;28;20077;-56
2023/08/03 03:33:58;;;;;;;3.95;1.30;;;17.80;69.80;;;19.22;51.70;96291.66;5013359;28;20042;-56
2023/08/03 03:36:25;;;;;;;4.53;1.48;;;17.80;69.80;;;19.27;51.36;96301.72;5013599;28;20053;-57
2023/08/03 03:38:53;;;;;;;3.30;1.00;;;17.80;69.70;;;19.22;51.75;96297.06;5001723;28;20048;-52
2023/08/03 03:41:21;;;;;;;4.60;1.50;;;17.80;69.60;;;19.23;51.60;96296.00;5013175;28;20061;-56
2023/08/03 03:43:49;;;;;;;3.65;1.30;;;17.70;69.90;;;19.24;51.39;96299.50;5012846;28;20045;-54
2023/08/03 03:46:16;;;;;;;2.38;1.27;;;17.80;69.70;;;19.27;51.51;96305.22;5013300;28;20493;-56
2023/08/03 03:48:44;;;;;;;4.78;1.50;;;17.70;69.80;;;19.18;51.71;96301.31;5028723;28;20403;-56
2023/08/03 03:51:12;;;;;;;3.65;1.15;;;17.70;70.00;;;19.18;51.43;96308.59;5012895;28;20045;-56
2023/08/03 03:53:41;;;;;;;6.10;2.50;;;17.70;69.80;;;19.14;51.71;96299.38;5013063;28;20042;-56
2023/08/03 03:56:13;;;;;;;3.78;1.83;;;17.60;70.00;;;19.04;51.83;96297.34;5013040;28;20474;-56
2023/08/03 03:58:41;;;;;;;6.68;1.67;;;17.60;70.30;;;19.02;52.12;96307.56;5012129;28;20061;-53
2023/08/03 04:01:09;;;;;;;10.65;2.53;;;17.50;70.50;;;18.84;52.45;96314.03;5014177;28;20431;-56
2023/08/03 04:03:36;;;;;;;5.57;1.85;;;17.50;71.00;;;18.79;52.51;96303.97;5012907;28;20433;-53
2023/08/03 04:06:08;;;;;;;9.57;1.98;;;17.50;71.20;;;18.72;52.73;96313.28;5013032;28;20053;-56
2023/08/03 04:08:36;;;;;;;3.05;1.40;;;17.40;71.30;;;18.68;53.04;96294.06;5013481;28;20068;-56
2023/08/03 04:11:03;;;;;;;3.17;1.10;;;17.40;71.40;;;18.57;53.23;96313.84;5011951;28;20046;-56
2023/08/03 04:13:31;;;;;;;6.95;1.60;;;17.40;71.50;;;18.55;53.46;96311.38;5011712;28;20053;-53
2023/08/03 04:15:59;;;;;;;2.20;1.50;;;17.40;71.80;;;18.56;53.47;96312.22;5012803;28;20065;-55
2023/08/03 04:18:30;;;;;;;3.97;1.60;;;17.30;72.10;;;18.65;53.02;96327.72;5011891;28;20505;-52
2023/08/03 04:20:58;;;;;;;3.60;2.22;;;17.40;71.70;;;18.54;53.34;96319.72;5012773;28;20046;-54
2023/08/03 04:23:25;;;;;;;6.93;2.25;;;17.30;71.70;;;18.54;53.38;96325.13;5012622;28;20046;-55
2023/08/03 04:25:55;;;;;;;8.43;2.05;;;17.30;71.70;;;18.55;53.25;96329.44;5012554;28;20057;-57
2023/08/03 04:28:25;;;;;;;7.63;1.52;;;17.30;71.50;;;18.57;53.10;96324.63;5011516;28;20205;-57
2023/08/03 04:30:52;;;;;;;5.07;1.77;;;17.30;71.40;;;18.55;53.11;96337.50;5004345;28;20053;-56
2023/08/03 04:33:20;;;;;;;3.72;1.55;;;17.30;71.00;;;18.45;53.24;96338.97;5012529;28;20045;-55
2023/08/03 04:35:52;;;;;;;5.00;1.50;;;17.30;71.00;;;18.54;52.79;96350.19;5021011;28;20057;-54
2023/08/03 04:38:24;;;;;;;5.28;1.63;;;17.30;70.70;;;18.56;52.74;96358.84;4995576;28;20057;-55
2023/08/03 04:41:00;;;;;;;3.03;1.30;;;17.40;70.50;;;18.56;52.50;96358.03;5004944;28;20042;-57
2023/08/03 04:43:28;;;;;;;3.90;1.25;;;17.40;69.30;;;18.41;52.07;96363.97;5011678;28;20679;-55
2023/08/03 04:45:56;;;;;;;2.47;1.38;;;17.30;68.00;;;18.29;52.22;96351.34;5012068;28;20053;-55
2023/08/03 04:48:24;;;;;;;3.17;1.70;;;17.40;67.80;;;18.42;51.64;96357.53;5020325;28;20557;-55
2023/08/03 04:50:53;;;;;;;5.22;1.20;;;17.40;66.90;;;18.42;51.33;96381.78;5019883;28;20038;-55
2023/08/03 04:53:24;;;;;;;2.08;1.02;;;17.50;66.00;;;18.47;51.36;96384.53;5020082;28;20452;-54
2023/08/03 04:55:52;;;;;;;5.85;1.17;;;17.50;65.80;;;18.50;51.18;96366.00;5019494;28;20118;-55
2023/08/03 04:58:20;;;;;;;2.05;0.90;;;17.60;66.00;;;18.64;50.98;96390.78;5020040;28;20060;-51
2023/08/03 05:00:49;;;;;;;3.85;1.10;;;17.60;65.50;;;18.72;50.83;96388.75;5011770;28;20044;-54
2023/08/03 05:03:17;;;;;;;3.20;1.30;;;17.70;65.40;;;18.74;50.68;96394.72;5011929;28;20042;-54
2023/08/03 05:05:45;;;;;;;3.67;1.20;;;17.80;64.50;;;18.84;50.75;96395.75;4995345;28;20429;-53
2023/08/03 05:08:16;;;;;;;3.70;1.23;;;17.80;65.20;;;18.94;50.51;96405.03;5011195;28;20061;-51
2023/08/03 05:10:44;;;;;;;6.32;1.00;;;17.90;65.50;;;18.89;50.51;96389.63;5011550;28;20049;-56
2023/08/03 05:13:11;;;;;;;4.63;1.02;;;17.90;64.50;;;19.00;50.44;96398.66;5012775;28;20045;-55
2023/08/03 05:15:39;;;;;;;1.55;0.75;;;18.00;65.40;;;19.02;50.49;96407.34;5011734;28;20057;-53
2023/08/03 05:18:07;;;;;;;3.17;1.10;;;18.00;64.50;;;19.15;50.40;96415.09;5011678;28;20042;-53
2023/08/03 05:20:34;;;;;;;2.60;1.00;;;18.10;65.00;;;19.24;50.23;96418.22;5012595;28;20061;-56
2023/08/03 05:23:05;;;;;;;4.72;1.15;;;18.10;65.10;;;19.21;50.12;96419.53;5027996;28;20042;-53
2023/08/03 05:25:33;;;;;;;3.80;0.90;;;18.20;65.60;;;19.29;50.00;96410.22;5011444;28;20417;-56
2023/08/03 05:28:01;;;;;;;2.72;1.00;;;18.20;63.80;;;19.24;50.10;96418.22;5010826;28;20049;-54
2023/08/03 05:30:29;;;;;;;1.67;1.15;;;18.20;64.60;;;19.21;49.97;96416.00;5012197;28;20069;-56
2023/08/03 05:32:57;;;;;;;2.55;1.45;;;18.20;64.50;;;19.32;49.92;96435.88;5012233;28;20064;-52
2023/08/03 05:35:25;;;;;;;2.90;1.20;;;18.20;64.70;;;19.27;50.06;96432.03;5012075;28;20049;-56
2023/08/03 05:37:53;;;;;;;1.60;1.00;;;18.20;64.50;;;19.32;50.26;96438.56;5012076;28;20060;-54
2023/08/03 05:40:21;;;;;;;2.80;1.05;;;18.20;65.30;;;19.35;50.10;96433.50;5010340;28;20062;-57
2023/08/03 05:42:48;;;;;;;1.95;1.23;;;18.20;65.10;;;19.36;50.12;96445.91;5011003;28;20405;-55
2023/08/03 05:45:37;;;;;;;4.03;1.10;;;18.20;65.40;;;19.47;50.09;96450.41;5012092;28;20057;-50
2023/08/03 05:48:15;;;;;;;2.72;0.90;;;18.30;65.30;;;19.57;50.21;96451.63;5019685;28;20053;-54
2023/08/03 05:50:47;;;;;;;4.38;1.00;;;18.30;66.00;;;19.53;50.34;96450.50;5010730;28;20049;-55
2023/08/03 05:53:16;;;;;;;2.95;1.00;;;18.30;66.30;;;19.57;50.55;96457.03;5011504;28;20061;-58
2023/08/03 05:55:45;;;;;;;2.20;0.82;;;18.30;67.00;;;19.61;50.91;96450.88;5010710;28;20552;-55
2023/08/03 05:58:35;;;;;;;1.80;1.00;;;18.30;67.30;;;19.62;50.62;96452.53;5018302;28;20061;-54
2023/08/03 06:01:03;;;;;;;2.00;1.35;;;18.30;67.30;;;19.64;50.76;96457.69;5003135;28;20056;-57
2023/08/03 06:03:36;;;;;;;2.22;0.88;;;18.40;67.40;;;19.67;51.23;96463.38;5012296;28;20054;-53
2023/08/03 06:06:04;;;;;;;1.38;0.77;;;18.40;68.90;;;19.50;52.06;96470.69;5003385;28;20049;-57
2023/08/03 06:08:33;;;;;;;2.50;0.90;;;18.10;69.80;;;19.40;52.83;96476.72;5010026;28;20042;-55
2023/08/03 06:11:04;;;;;;;2.05;1.15;;;18.00;72.80;;;19.46;54.36;96480.34;5002703;28;20428;-57
2023/08/03 06:13:38;;;;;;;2.63;0.88;;;18.00;76.50;;;19.32;54.87;96481.75;5010403;28;20046;-57
2023/08/03 06:16:10;;;;;;;4.53;1.33;;;17.70;78.20;;;19.24;55.43;96474.88;5004299;28;20061;-56
2023/08/03 06:18:48;;;;;;;1.70;0.80;;;17.60;79.60;;;19.17;55.70;96475.00;5009999;28;20435;-58
2023/08/03 06:21:17;;;;;;;1.58;0.85;;;17.40;82.00;;;19.08;56.15;96477.31;5011678;28;20057;-58
2023/08/03 06:23:47;;;;;;;1.67;0.88;;;17.20;84.00;;;18.98;56.24;96490.63;5011554;28;20049;-57
2023/08/03 06:26:17;;;;;;;1.05;0.70;;;17.10;84.00;;;18.96;56.91;96486.50;5011184;28;20053;-53
2023/08/03 06:28:46;;;;;;;1.92;0.60;;;17.00;85.60;;;18.96;56.74;96490.06;5009561;28;20037;-56
2023/08/03 06:31:22;;;;;;;1.05;0.60;;;17.10;85.50;;;18.99;56.98;96494.13;5011501;28;20049;-58
2023/08/03 06:33:49;;;;;;;1.75;0.90;;;17.20;85.90;;;18.95;57.31;96499.19;5011434;28;20050;-53
2023/08/03 06:36:25;;;;;;;1.02;0.73;;;17.10;85.90;;;18.93;57.44;96501.31;5011490;28;20054;-54
2023/08/03 06:38:53;;;;;;;0.80;0.80;;;17.20;86.20;;;18.89;57.43;96503.66;5011138;28;20046;-56
2023/08/03 06:41:24;;;;;;;2.13;0.68;;;17.20;85.90;;;18.88;57.52;96495.81;4993985;28;20053;-56
2023/08/03 06:43:54;;;;;;;3.35;0.65;;;17.20;85.40;;;18.91;57.51;96500.75;5011488;28;20041;-58
2023/08/03 06:46:24;;;;;;;2.75;1.20;;;17.30;85.00;;;18.99;57.63;96507.63;5010195;28;20050;-56
2023/08/03 06:48:52;;;;;;;1.30;0.70;;;17.40;84.50;;;18.90;56.83;96496.38;5009744;28;20046;-55
2023/08/03 06:51:20;;;;;;;2.10;0.90;;;17.40;81.10;;;18.93;56.28;96509.41;5013063;28;20413;-58
2023/08/03 06:53:49;;;;;;;3.03;1.13;;;17.50;78.90;;;18.92;55.68;96510.47;5014006;28;20046;-57
2023/08/03 06:56:17;;;;;;;3.70;1.25;;;17.60;77.00;;;19.02;55.49;96516.03;5015118;28;20492;-57
2023/08/03 06:58:45;;;;;;;1.95;0.90;;;17.70;77.00;;;19.07;54.53;96516.13;5014659;28;20433;-57
2023/08/03 07:01:13;;;;;;;2.22;1.00;;;17.80;73.80;;;19.15;54.90;96519.50;5015131;28;20050;-54
2023/08/03 07:03:40;;;;;;;2.22;0.90;;;17.90;75.20;;;19.29;54.05;96526.22;5015092;28;20053;-55
2023/08/03 07:06:08;;;;;;;2.28;1.25;;;18.10;73.30;;;19.22;53.07;96522.88;5015081;28;20057;-57
2023/08/03 07:08:36;;;;;;;2.63;1.00;;;18.10;70.00;;;19.28;53.29;96529.97;5014649;28;20053;-56
2023/08/03 07:11:04;;;;;;;2.13;1.10;;;18.20;71.50;;;19.33;52.50;96537.31;5013773;28;20444;-52
2023/08/03 07:13:31;;;;;;;2.63;1.08;;;18.30;69.20;;;19.51;51.93;96541.69;5011192;28;20050;-58
2023/08/03 07:16:07;;;;;;;3.40;1.38;;;18.50;68.10;;;19.64;51.46;96536.78;5013823;28;20049;-57
2023/08/03 07:18:35;;;;;;;3.45;0.80;;;18.70;65.90;;;19.68;50.67;96562.22;5014569;28;20046;-56
2023/08/03 07:21:04;;;;;;;2.03;1.00;;;18.70;65.00;;;19.71;49.91;96538.50;5014577;28;20087;-59
2023/08/03 07:23:33;;;;;;;1.52;1.00;;;18.80;65.00;;;19.89;50.04;96530.19;5014827;28;20057;-58
2023/08/03 07:26:01;;;;;;;1.52;0.80;;;18.90;63.60;;;20.00;49.54;96536.53;5014797;28;20046;-59
2023/08/03 07:28:28;;;;;;;1.40;1.15;;;19.10;63.80;;;19.92;48.71;96545.06;5014349;28;20197;-58
2023/08/03 07:30:56;;;;;;;3.83;1.10;;;19.00;61.20;;;19.95;48.36;96542.69;5014633;28;20038;-58
2023/08/03 07:33:24;;;;;;;2.22;1.00;;;19.10;60.30;;;20.01;47.98;96549.78;5014737;28;20037;-56
2023/08/03 07:35:51;;;;;;;4.10;1.48;;;19.10;60.40;;;20.12;47.95;96558.84;5013534;28;20494;-58
2023/08/03 07:38:19;;;;;;;3.42;1.83;;;19.10;61.10;;;20.06;47.44;96549.03;5014236;28;20424;-55
2023/08/03 07:40:47;;;;;;;2.03;1.10;;;19.20;59.00;;;20.04;46.74;96565.47;5014515;28;20053;-55
2023/08/03 07:43:14;;;;;;;2.97;1.13;;;19.30;58.30;;;20.11;46.64;96556.41;5014308;28;20042;-52
2023/08/03 07:45:42;;;;;;;4.50;1.38;;;19.30;57.80;;;20.22;46.87;96552.75;5008907;28;20402;-57
2023/08/03 07:48:12;;;;;;;1.90;1.10;;;19.30;58.40;;;20.02;45.80;96566.81;5005698;28;20034;-57
2023/08/03 07:50:40;;;;;;;2.97;1.30;;;19.20;56.70;;;20.06;46.50;96565.25;5012487;28;20038;-57
2023/08/03 07:53:07;;;;;;;1.95;0.90;;;19.10;58.50;;;20.14;46.15;96555.91;5013601;28;20485;-57
2023/08/03 07:55:35;;;;;;;1.45;1.25;;;19.10;57.70;;;20.23;46.12;96559.81;5012896;28;20406;-57
2023/08/03 07:58:03;;;;;;;2.15;1.20;;;19.10;58.70;;;19.92;46.18;96563.97;5010927;28;20516;-58
2023/08/03 08:00:30;;;;;;;1.35;0.90;;;19.00;57.70;;;19.93;46.11;96563.72;4999938;28;21355;-59
2023/08/03 08:02:58;;;;;;;0.77;0.60;;;18.90;58.00;;;19.83;45.82;96561.69;5002871;28;20462;-58
2023/08/03 08:05:26;;;;;;;2.70;1.00;;;18.90;56.80;;;19.85;46.05;96572.22;5002945;28;20034;-58
2023/08/03 08:07:54;;;;;;;3.25;1.10;;;18.80;57.40;;;19.94;46.17;96568.03;5004263;28;20520;-55
2023/08/03 08:10:22;;;;;;;3.30;1.83;;;18.90;57.40;;;20.09;45.87;96564.75;5003993;28;20497;-57
2023/08/03 08:12:49;;;;;;;4.10;1.42;;;19.00;57.30;;;20.15;45.77;96562.94;5004041;28;20057;-58
2023/08/03 08:15:17;;;;;;;2.05;1.15;;;19.10;56.80;;;20.14;45.78;96559.44;5002991;28;20050;-58
2023/08/03 08:17:45;;;;;;;1.42;1.13;;;19.20;57.00;;;20.31;45.04;96553.97;5004305;28;20050;-58
2023/08/03 08:20:12;;;;;;;1.33;0.70;;;19.30;56.40;;;20.26;45.37;96545.81;5004002;28;20812;-58
2023/08/03 08:22:40;;;;;;;2.10;1.20;;;19.40;56.50;;;20.31;45.45;96543.16;5002211;28;20042;-59
2023/08/03 08:25:08;;;;;;;2.28;1.08;;;19.50;56.40;;;20.53;45.06;96547.75;5003630;28;20076;-58
2023/08/03 08:27:36;;;;;;;1.30;1.00;;;19.60;56.20;;;20.74;45.68;96538.84;5003869;28;20505;-58
2023/08/03 08:30:04;;;;;;;2.83;1.30;;;19.90;56.20;;;20.76;45.17;96538.59;5003572;28;20049;-58
2023/08/03 08:32:32;;;;;;;2.20;1.02;;;20.00;56.00;;;20.81;44.74;96535.97;5003935;28;20046;-58
2023/08/03 08:35:00;;;;;;;3.03;0.98;;;20.00;55.60;;;20.77;44.42;96527.53;5015439;28;20079;-58
2023/08/03 08:37:29;;;;;;;2.28;1.10;;;19.90;54.40;;;20.76;44.16;96550.25;5003829;28;20441;-58
2023/08/03 08:39:57;;;;;;;2.78;1.10;;;19.90;54.70;;;20.83;44.86;96545.44;5003096;28;20053;-59
2023/08/03 08:42:28;;;;;;;4.22;1.10;;;20.00;55.80;;;20.85;45.14;96554.13;5002172;28;20402;-59
2023/08/03 08:44:56;;;;;;;1.58;0.80;;;20.10;55.80;;;20.91;44.33;96556.91;5003408;28;20046;-58
2023/08/03 08:47:24;;;;;;;3.05;1.05;;;20.10;54.40;;;20.97;44.56;96564.81;5004181;28;20048;-59
2023/08/03 08:49:52;;;;;;;1.80;1.38;;;20.20;55.00;;;20.90;43.80;96602.06;5003002;28;20625;-58
2023/08/03 08:52:44;;;;;;;2.72;1.02;;;20.20;53.70;;;20.78;44.14;96568.91;5003322;28;20042;-58
2023/08/03 08:55:21;;;;;;;3.47;1.63;;;20.10;54.20;;;20.93;44.45;96571.00;4999235;28;20053;-59
2023/08/03 08:58:09;;;;;;;0.75;0.70;;;20.20;54.90;;;21.08;44.17;96581.16;5002259;28;20041;-58
2023/08/03 09:00:46;;;;;;;1.48;1.00;;;20.30;54.30;;;21.12;43.69;96593.13;5000834;28;20049;-58
2023/08/03 09:03:15;;;;;;;1.88;1.20;;;20.40;54.10;;;21.20;44.04;96585.34;5001776;28;20045;-60
2023/08/03 09:05:43;;;;;;;2.67;0.82;;;20.50;53.90;;;21.40;44.24;96595.59;4998676;28;20046;-59
2023/08/03 09:08:18;;;;;;;1.27;1.17;;;20.70;54.70;;;21.31;43.93;96582.75;5001982;28;20057;-58
2023/08/03 09:10:50;;;;;;;2.15;0.88;;;20.70;53.90;;;21.45;42.91;96596.72;5007787;28;20414;-57
2023/08/03 09:13:35;;;;;;;4.00;1.40;;;20.70;52.60;;;21.40;43.33;96592.88;5003560;28;20037;-58
2023/08/03 09:16:03;;;;;;;0.60;0.57;;;20.60;53.20;;;21.43;43.43;96597.78;5012578;28;20042;-60
2023/08/03 09:18:32;;;;;;;2.83;1.10;;;20.60;53.40;;;21.59;43.68;96603.34;5012118;28;20053;-57
2023/08/03 09:21:16;;;;;;;2.40;0.93;;;20.70;54.20;;;21.36;43.57;96607.97;5011787;28;20042;-58
2023/08/03 09:23:47;;;;;;;2.63;1.33;;;20.50;53.90;;;21.39;43.78;96617.50;5011724;28;20065;-58
2023/08/03 09:26:23;;;;;;;1.00;0.80;;;20.50;54.60;;;21.49;43.85;96619.50;5012494;28;20042;-58
2023/08/03 09:28:53;;;;;;;3.15;0.90;;;20.70;54.70;;;21.61;43.74;96633.69;5012131;28;20042;-58
2023/08/03 09:31:25;;;;;;;0.80;0.80;;;20.80;53.70;;;21.62;43.09;96621.81;5003487;28;20064;-58
2023/08/03 09:34:13;;;;;;;1.52;0.60;;;20.80;53.80;;;21.71;43.28;96619.44;5012631;28;20249;-59
2023/08/03 09:36:47;;;;;;;2.70;0.93;;;20.90;54.00;;;21.73;43.53;96625.41;5011107;28;20042;-54
2023/08/03 09:39:38;;;;;;;1.95;1.05;;;20.90;53.40;;;21.68;43.06;96633.50;5004907;28;20076;-59
2023/08/03 09:42:07;;;;;;;1.92;0.85;;;20.90;53.30;;;21.45;43.20;96637.34;5011139;28;20050;-58
2023/08/03 09:44:55;;;;;;;1.38;0.80;;;20.70;52.90;;;21.68;43.42;96628.09;5012257;28;20508;-59
2023/08/03 09:47:23;;;;;;;2.47;0.63;;;20.70;54.00;;;21.70;43.22;96637.59;5003457;28;20053;-59
2023/08/03 09:49:54;;;;;;;1.67;1.00;;;20.80;54.10;;;21.77;43.70;96637.34;4995144;28;20420;-60
2023/08/03 09:52:31;;;;;;;2.47;0.70;;;20.80;54.60;;;21.84;43.45;96651.50;5012313;28;20038;-58
2023/08/03 09:55:10;;;;;;;0.95;0.70;;;20.90;54.20;;;21.83;43.60;96642.59;5012051;28;20041;-59
2023/08/03 09:57:42;;;;;;;3.78;0.95;;;20.80;54.80;;;21.73;43.48;96647.91;5011648;28;20041;-59
2023/08/03 10:00:13;;;;;;;3.47;1.25;;;20.80;55.20;;;21.75;43.74;96653.06;5011506;28;20053;-59
2023/08/03 10:02:49;;;;;;;1.13;0.70;;;20.70;54.50;;;21.82;43.00;96653.66;5012129;28;20045;-60
2023/08/03 10:05:19;;;;;;;2.22;0.80;;;20.70;54.10;;;21.87;43.57;96658.31;5010641;28;20053;-59
2023/08/03 10:08:16;;;;;;;2.47;1.63;;;20.70;54.80;;;21.89;43.73;96654.28;5011743;28;20501;-60
2023/08/03 10:10:48;;;;;;;0.55;0.55;;;20.80;54.70;;;21.71;42.95;96662.78;5003815;28;20836;-59
2023/08/03 10:13:16;;;;;;;1.08;0.98;;;20.70;53.30;;;21.84;43.17;96673.19;5006755;28;20041;-59
2023/08/03 10:15:45;;;;;;;0.95;0.77;;;20.80;54.40;;;21.78;43.13;96671.50;5010978;28;20548;-59
2023/08/03 10:18:13;;;;;;;2.45;1.30;;;20.80;53.90;;;21.85;43.56;96671.28;5010284;28;20045;-60
2023/08/03 10:20:42;;;;;;;0.85;0.85;;;20.70;54.40;;;21.74;43.39;96670.41;5011678;28;20523;-59
2023/08/03 10:23:18;;;;;;;2.28;0.98;;;20.70;54.90;;;21.80;43.69;96669.38;4994117;28;20054;-59
2023/08/03 10:25:56;;;;;;;1.75;0.85;;;20.80;55.00;;;21.98;43.68;96671.72;5010078;28;20057;-59
2023/08/03 10:28:40;;;;;;;2.47;0.85;;;20.90;54.80;;;21.98;43.60;96684.41;5011201;28;20037;-59
2023/08/03 10:31:14;;;;;;;1.65;0.80;;;20.90;54.90;;;21.89;44.01;96675.13;5011613;28;20045;-59